Tiempo atmosférico en la estación meteorológica de Monreal/Elo, Navarra (585 m.)



Fecha
DESCASC
Temp. máxima en grados centígrados (hora)
DESCASC
Temp. mínima en grados centígrados (hora)
DESCASC
Temp. media en grados centígrados
DESCASC
Racha de viento máxima en m/sg (hora)
DESCASC
Velocidad máxima media en intervalos de 10 minutos(hora)
DESCASC
Precipitaciones diarias en mm
DESCASC
Precipitaciones de 00:00 a 06:00 en mm
DESCASC
Precipitaciones de 06:00 a 12:00 en mm
DESCASC
Precipitaciones de 12:00 a 18:00 en mm
DESCASC
Precipitaciones de 18:00 a 24:00 en mm
DESCASC
08-12-2019 8.6 (21:00) 2 (08:20) 5.3 12.5 (21:30) 7.78 (21:30) 3.6 0 0 3.4 0.2
07-12-2019 12.1 (15:10) 1.3 (08:00) 6.7 3.89 (23:40) 3.33 (23:40) 0 0 0 0 0
06-12-2019 13.4 (13:50) 0.5 (07:20) 6.9 6.39 (14:50) 4.72 (15:10) 0 0 0 0 0
05-12-2019 12.5 (13:50) 2.6 (00:00) 7.5 10.28 (02:20) 8.33 (17:10) 0 0 0 0 0
04-12-2019 10.6 (16:00) -0.8 (-00:0) 4.9 13.33 (20:20) 9.44 (20:00) 0 0 0 0 0
03-12-2019 5.4 (14:30) 0.1 (00:00) 2.8 13.06 (00:20) 9.72 (00:10) 0 0 0 0 0
02-12-2019 9.1 (12:10) 2.9 (00:00) 6 15.28 (22:00) 11.39 (18:30) 0 0 0 0 0
01-12-2019 9.8 (15:30) 2 (00:00) 5.9 8.61 (22:00) 6.67 (22:30) 0.2 0 0 0.2 0
30-11-2019 14.7 (13:30) 4.8 (00:00) 9.8 18.61 (17:00) 13.89 (17:00) 22.6 0 0 15.4 7.2
29-11-2019 13.6 (13:40) 4.8 (00:00) 9.2 11.67 (01:40) 5.83 (07:10) 0.6 0.6 0 0 0
28-11-2019 13.1 (12:00) 8.5 (00:10) 10.8 14.72 (05:50) 8.61 (05:50) 1.2 0 0 0.6 0.6
27-11-2019 13.4 (12:50) 8.4 (00:00) 10.9 22.22 (05:10) 13.89 (05:10) 5.6 1.4 0 1.6 2.6
26-11-2019 14.7 (15:50) 6.5 (00:00) 10.6 21.11 (19:20) 14.17 (20:50) 5 0 0 0 5
25-11-2019 14.9 (13:00) 5.7 (06:40) 10.3 5.28 (01:00) 3.89 (01:10) 0 0 0 0 0
24-11-2019 9.5 (15:40) 4.5 (00:00) 7 8.06 (01:10) 5.83 (01:10) 7.2 4.2 1 0 2
23-11-2019 8.4 (00:30) 5.6 (00:00) 7 16.39 (15:30) 10.56 (11:10) 20 2 13.6 2 2.4
22-11-2019 9.5 (21:00) 5.2 (00:00) 7.3 19.72 (15:30) 15.56 (16:30) 11 0 7.4 2.6 1
21-11-2019 10.4 (13:00) 4.8 (00:00) 7.6 9.44 (02:40) 8.06 (02:50) 0.2 0.2 0 0 0
20-11-2019 9.3 (15:00) 0.8 (06:40) 5.1 11.67 (13:30) 8.61 (15:40) 0.4 0 0 0 0.4
19-11-2019 9.8 (16:00) 0.9 (00:00) 5.4 9.72 (11:00) 7.22 (11:00) 0 0 0 0 0
18-11-2019 5.6 (14:30) 1.8 (00:00) 3.7 13.89 (21:10) 10 (21:10) 0.8 0.8 0 0 0
17-11-2019 7.5 (15:00) 3 (00:00) 5.3 4.72 (14:20) 3.33 (14:20) 2 0.4 0.8 0.6 0.2
16-11-2019 4.9 (14:50) -0.3 (00:00) 2.3 10.83 (15:20) 5.83 (15:20) 6.6 0 1.2 4.2 1.2
15-11-2019 5.4 (15:10) 1.2 (00:00) 3.3 15 (12:00) 9.72 (11:50) 5.4 0 3.4 1.6 0.4
14-11-2019 8.7 (14:20) 1.9 (00:00) 5.3 10.56 (06:50) 7.5 (06:30) 10 8.2 1.8 0 0
13-11-2019 10.8 (14:30) 6 (00:00) 8.4 16.39 (14:50) 11.11 (15:40) 2.2 2 0 0.2 0
12-11-2019 9.8 (16:00) 4.3 (00:00) 7.1 11.94 (13:50) 7.5 (12:50) 0.4 0 0.4 0 0
11-11-2019 7 (16:30) 1.9 (02:50) 4.4 15 (19:20) 9.17 (19:20) 5.2 0 0.2 4.6 0.4

Gráficas

Temp. máximas Temp. mínimas Temp. medias Precipitaciones Rachas de viento máximas Velocidades máximas media en intervalos de 10 minutos

Datos horarios

Fecha y hora oficial Temperatura (ºC) Velocidad del viento (km/h) Dirección del viento Racha (km/h) Dirección de racha Precipitación (mm) Presión (hPa) Tendencia (hPa) Humedad (%)
2019-12-10 23:00:00 4.6 4 Este 13 Sudeste 0 -- -- 81
2019-12-10 22:00:00 4.9 6 Sudeste 13 Sudeste 0 -- -- 79
2019-12-10 21:00:00 5.1 8 Sudeste 13 Sudeste 0 -- -- 79
2019-12-10 20:00:00 5 10 Sudeste 12 Sudeste 0 -- -- 79
2019-12-10 19:00:00 5.3 10 Sudeste 12 Sudeste 0 -- -- 79
2019-12-10 18:00:00 6.5 7 Sudeste 10 Sudeste 0 -- -- 80
2019-12-10 17:00:00 9.3 0 Calma 15 Noroeste 0 -- -- 64
2019-12-10 16:00:00 10.4 9 Noroeste 14 Noroeste 0 -- -- 64
2019-12-10 15:00:00 11.6 9 Noroeste 20 Noroeste 0 -- -- 62
2019-12-10 14:00:00 10.6 12 Noroeste 27 Noroeste 0 -- -- 69
2019-12-10 13:00:00 9.4 21 Noroeste 28 Noroeste 0 -- -- 70
2019-12-10 12:00:00 8.1 22 Noroeste 41 Noroeste 0 -- -- 76
2019-12-10 11:00:00 7.2 26 Noroeste 40 Noroeste 0 -- -- 78
2019-12-10 10:00:00 5.8 24 Noroeste 33 Noroeste 0 -- -- 88
2019-12-10 09:00:00 5 24 Noroeste 31 Noroeste 0 -- -- 91
2019-12-10 08:00:00 4.7 23 Noroeste 31 Noroeste 0 -- -- 93
2019-12-10 07:00:00 5.3 19 Noroeste 32 Noroeste 0 -- -- 93
2019-12-10 06:00:00 5.7 19 Noroeste 36 Noroeste 0 -- -- 97
2019-12-10 05:00:00 6.2 27 Noroeste 41 Noroeste 0 -- -- 96
2019-12-10 04:00:00 5.9 27 Noroeste 35 Noroeste 0 -- -- 98
2019-12-10 03:00:00 5.8 23 Noroeste 32 Noroeste 0 -- -- 98
2019-12-10 02:00:00 5.7 20 Noroeste 31 Noroeste 0 -- -- 96
2019-12-10 01:00:00 6.3 22 Noroeste 33 Noroeste 0 -- -- 89
2019-12-10 00:00:00 6.2 27 Noroeste 44 Noroeste 0 -- -- 93
2019-12-09 23:00:00 6.4 31 Noroeste 50 Noroeste 0 -- -- 92
2019-12-09 22:00:00 6.6 31 Noroeste 50 Noroeste 0 -- -- 90
2019-12-09 21:00:00 6.6 27 Noroeste 35 Noroeste 0 -- -- 93
2019-12-09 20:00:00 6.5 22 Noroeste 34 Noroeste 0 -- -- 92
2019-12-09 19:00:00 7 31 Noroeste 54 Noroeste 0 -- -- 84
2019-12-09 18:00:00 6.7 40 Noroeste 74 Noroeste 0.2 -- -- 90
2019-12-09 17:00:00 7.2 55 Noroeste 83 Noroeste 0 -- -- 84
2019-12-09 16:00:00 8.6 49 Noroeste 75 Noroeste 0 -- -- 71
2019-12-09 15:00:00 8.9 48 Noroeste 66 Oeste 0 -- -- 74
2019-12-09 14:00:00 7.7 35 Noroeste 71 Noroeste 0.4 -- -- 85
2019-12-09 13:00:00 8.6 32 Noroeste 57 Noroeste 0 -- -- 78
2019-12-09 12:00:00 7.9 37 Oeste 73 Noroeste 0 -- -- 84
2019-12-09 11:00:00 8 34 Noroeste 56 Noroeste 0.2 -- -- 88
2019-12-09 10:00:00 6.7 26 Noroeste 37 Oeste 0.2 -- -- 94
2019-12-09 09:00:00 6.9 22 Noroeste 35 Noroeste 0 -- -- 87
2019-12-09 08:00:00 6.9 27 Noroeste 48 Noroeste 0 -- -- 85
2019-12-09 07:00:00 6.5 32 Noroeste 44 Noroeste 0 -- -- 83
2019-12-09 06:00:00 4.4 12 Noroeste 22 Noroeste 0 -- -- 94
2019-12-09 05:00:00 4.8 6 Noroeste 12 Noroeste 0 -- -- 94
2019-12-09 04:00:00 5.3 5 Norte 9 Norte 0 -- -- 92
2019-12-09 03:00:00 5.2 5 Noroeste 11 Norte 0 -- -- 92
2019-12-09 02:00:00 5.5 6 Noroeste 16 Noroeste 0 -- -- 89
2019-12-09 01:00:00 6.5 8 Noroeste 19 Norte 0 -- -- 85
2019-12-09 00:00:00 7.8 14 Norte 24 Noroeste 0 -- -- 82
2019-12-08 23:00:00 7.8 18 Norte 30 Noroeste 0 -- -- 84
2019-12-08 22:00:00 8.1 14 Norte 45 Noroeste 0 -- -- 86
2019-12-08 21:00:00 8.6 19 Noroeste 35 Noroeste 0 -- -- 88
2019-12-08 20:00:00 7.5 25 Noroeste 31 Noroeste 0 -- -- 100
2019-12-08 19:00:00 5.8 4 Noroeste 8 Noroeste 0.2 -- -- 100
2019-12-08 18:00:00 5.7 0 Calma 8 Noroeste 0.2 -- -- 99
2019-12-08 17:00:00 5.7 5 Noroeste 8 Noroeste 0.8 -- -- 99
2019-12-08 16:00:00 6.2 3 Noroeste 5 Noroeste 1.2 -- -- 98
2019-12-08 15:00:00 5.9 5 Noroeste 8 Noroeste 1 -- -- 98
2019-12-08 14:00:00 5.8 2 Noroeste 14 Noroeste 0.2 -- -- 98
2019-12-08 13:00:00 6.7 0 Calma 6 Noroeste 0 -- -- 96
2019-12-08 12:00:00 6.5 2 Norte 6 Noroeste 0 -- -- 97
2019-12-08 11:00:00 6.1 2 Noroeste 7 Noroeste 0 -- -- 97
2019-12-08 10:00:00 3.5 2 Sur 8 Sur 0 -- -- 99
2019-12-08 09:00:00 2.6 0 Calma 12 Este 0 -- -- 100
2019-12-08 08:00:00 2.2 0 Calma 6 Noroeste 0 -- -- 99
2019-12-08 07:00:00 2.7 2 Sudeste 17 Este 0 -- -- 99
2019-12-08 06:00:00 3.8 3 Este 9 Este 0 -- -- 100
2019-12-08 05:00:00 3.7 0 Calma 4 Noroeste 0 -- -- 99
2019-12-08 04:00:00 4.5 0 Calma 6 Sudeste 0 -- -- 98
2019-12-08 03:00:00 4.6 5 Sudeste 12 Sudeste 0 -- -- 99
2019-12-08 02:00:00 3.9 9 Sudeste 12 Sudeste 0 -- -- 98
2019-12-08 01:00:00 4.3 6 Sudeste 8 Sudeste 0 -- -- 97
2019-12-08 00:00:00 4.6 6 Sudeste 14 Sudeste 0 -- -- 96
2019-12-07 23:00:00 5.1 9 Sudeste 12 Sudeste 0 -- -- 95
2019-12-07 22:00:00 6.2 9 Sudeste 12 Sudeste 0 -- -- 95
2019-12-07 21:00:00 5.9 6 Sudeste 8 Sudeste 0 -- -- 93
2019-12-07 20:00:00 6.3 3 Sudeste 9 Sudeste 0 -- -- 93
2019-12-07 19:00:00 6.2 6 Sudeste 9 Sudeste 0 -- -- 92
2019-12-07 18:00:00 7.7 3 Este 5 Este 0 -- -- 89
2019-12-07 17:00:00 9.2 4 Noroeste 8 Norte 0 -- -- 84
2019-12-07 16:00:00 11.6 2 Noroeste 7 Oeste 0 -- -- 74
2019-12-07 15:00:00 11.6 4 Sudoeste 9 Oeste 0 -- -- 75
2019-12-07 14:00:00 8.8 6 Noroeste 12 Noroeste 0 -- -- 86
2019-12-07 13:00:00 6.3 10 Noroeste 12 Noroeste 0 -- -- 92
2019-12-07 12:00:00 7.9 7 Noroeste 10 Noroeste 0 -- -- 85
2019-12-07 11:00:00 8.2 2 Sur 6 Sudeste 0 -- -- 88
2019-12-07 10:00:00 3.8 2 Sudeste 7 Sudeste 0 -- -- 97
2019-12-07 09:00:00 2.2 0 Calma 8 Sudeste 0 -- -- 100
2019-12-07 08:00:00 1.3 9 Sudeste 12 Este 0 -- -- 99
2019-12-07 07:00:00 1.9 2 Este 13 Sudeste 0 -- -- 99
2019-12-07 06:00:00 1.9 6 Sudeste 10 Sudeste 0 -- -- 99
2019-12-07 05:00:00 2.2 6 Sudeste 9 Este 0 -- -- 98
2019-12-07 04:00:00 3.6 5 Este 12 Sudeste 0 -- -- 99
2019-12-07 03:00:00 3.3 0 Calma 12 Sudeste 0 -- -- 98
2019-12-07 02:00:00 2.8 9 Sudeste 13 Sudeste 0 -- -- 98
2019-12-07 01:00:00 3 6 Sudeste 10 Este 0 -- -- 97
2019-12-07 00:00:00 3.4 10 Sudeste 12 Sudeste 0 -- -- 97
2019-12-06 23:00:00 4.1 5 Sudeste 10 Sudeste 0 -- -- 94
2019-12-06 22:00:00 4.7 9 Sudeste 14 Sudeste 0 -- -- 92
2019-12-06 21:00:00 4 10 Sudeste 12 Sudeste 0 -- -- 94
2019-12-06 20:00:00 5 8 Sudeste 10 Sudeste 0 -- -- 92
2019-12-06 19:00:00 6.4 9 Sudeste 12 Sudeste 0 -- -- 90
2019-12-06 18:00:00 8 4 Sudeste 8 Norte 0 -- -- 82
2019-12-06 17:00:00 9.5 6 Noroeste 15 Sur 0 -- -- 79
2019-12-06 16:00:00 10.7 7 Noroeste 22 Sudeste 0 -- -- 74
2019-12-06 15:00:00 12.8 15 Sudeste 23 Sudeste 0 -- -- 65
2019-12-06 14:00:00 13.4 14 Sudeste 22 Sudeste 0 -- -- 62
2019-12-06 13:00:00 12.5 10 Sudeste 15 Sudeste 0 -- -- 66
2019-12-06 12:00:00 8.2 3 Noroeste 5 Noroeste 0 -- -- 82
2019-12-06 11:00:00 7.2 2 Noroeste 9 Este 0 -- -- 84
2019-12-06 10:00:00 4.6 5 Sudeste 11 Este 0 -- -- 95
2019-12-06 09:00:00 2 0 Calma 8 Noroeste 0 -- -- 96
2019-12-06 08:00:00 2 2 Sudeste 10 Sudeste 0 -- -- 100
2019-12-06 07:00:00 1.6 3 Sudeste 10 Sudeste 0 -- -- 98
2019-12-06 06:00:00 1.3 5 Sudeste 12 Sudeste 0 -- -- 98
2019-12-06 05:00:00 0.7 8 Sudeste 11 Sudeste 0 -- -- 97
2019-12-06 04:00:00 2.1 2 Norte 8 Sudeste 0 -- -- 97
2019-12-06 03:00:00 2.6 7 Este 12 Este 0 -- -- 92
2019-12-06 02:00:00 1.5 8 Sudeste 12 Sudeste 0 -- -- 96
2019-12-06 01:00:00 1.8 9 Sudeste 11 Sudeste 0 -- -- 96
2019-12-06 00:00:00 2.6 6 Sudeste 8 Sudeste 0 -- -- 94
2019-12-05 23:00:00 3.2 5 Sudeste 6 Sudeste 0 -- -- 93
2019-12-05 22:00:00 3.9 0 Calma 13 Oeste 0 -- -- 91
2019-12-05 21:00:00 5 8 Noroeste 22 Noroeste 0 -- -- 88
2019-12-05 20:00:00 6.1 18 Noroeste 26 Noroeste 0 -- -- 84
2019-12-05 19:00:00 7 21 Noroeste 28 Noroeste 0 -- -- 79
2019-12-05 18:00:00 7.6 19 Noroeste 37 Noroeste 0 -- -- 76
2019-12-05 17:00:00 9.7 26 Oeste 36 Oeste 0 -- -- 66
2019-12-05 16:00:00 11.3 20 Noroeste 31 Oeste 0 -- -- 59
2019-12-05 15:00:00 11.9 23 Oeste 31 Oeste 0 -- -- 60
2019-12-05 14:00:00 12.3 17 Noroeste 24 Noroeste 0 -- -- 61
2019-12-05 13:00:00 11.4 15 Oeste 24 Oeste 0 -- -- 66
2019-12-05 12:00:00 9.2 18 Noroeste 28 Noroeste 0 -- -- 74
2019-12-05 11:00:00 7.2 24 Noroeste 32 Noroeste 0 -- -- 85
2019-12-05 10:00:00 5.5 17 Noroeste 26 Noroeste 0 -- -- 95
2019-12-05 09:00:00 4.5 16 Noroeste 26 Noroeste 0 -- -- 96
2019-12-05 08:00:00 3.9 18 Noroeste 25 Noroeste 0 -- -- 95
2019-12-05 07:00:00 4.2 16 Noroeste 28 Noroeste 0 -- -- 92
2019-12-05 06:00:00 4.8 19 Noroeste 28 Noroeste 0 -- -- 88
2019-12-05 05:00:00 4.8 18 Noroeste 28 Noroeste 0 -- -- 90
2019-12-05 04:00:00 4.9 23 Noroeste 29 Noroeste 0 -- -- 90
2019-12-05 03:00:00 4.7 21 Noroeste 37 Noroeste 0 -- -- 91
2019-12-05 02:00:00 4.6 26 Noroeste 37 Noroeste 0 -- -- 90
2019-12-05 01:00:00 4.9 23 Noroeste 33 Noroeste 0 -- -- 91
2019-12-05 00:00:00 5.7 26 Noroeste 35 Noroeste 0 -- -- 90
2019-12-04 23:00:00 5.7 23 Noroeste 45 Noroeste 0 -- -- 91
2019-12-04 22:00:00 6.2 32 Noroeste 45 Noroeste 0 -- -- 89
2019-12-04 21:00:00 6.4 31 Noroeste 48 Noroeste 0 -- -- 89
2019-12-04 20:00:00 6.5 34 Noroeste 47 Noroeste 0 -- -- 87
2019-12-04 19:00:00 6.4 27 Noroeste 46 Noroeste 0 -- -- 87
2019-12-04 18:00:00 8.2 32 Noroeste 43 Noroeste 0 -- -- 69
2019-12-04 17:00:00 9.4 29 Noroeste 42 Noroeste 0 -- -- 71
2019-12-04 16:00:00 10.6 17 Noroeste 30 Noroeste 0 -- -- 66
2019-12-04 15:00:00 9.9 23 Noroeste 31 Noroeste 0 -- -- 68
2019-12-04 14:00:00 8.3 13 Noroeste 17 Noroeste 0 -- -- 79
2019-12-04 13:00:00 7.1 7 Noroeste 11 Noroeste 0 -- -- 81
2019-12-04 12:00:00 5.7 7 Noroeste 12 Noroeste 0 -- -- 83
2019-12-04 11:00:00 4.9 3 Noroeste 5 Sudeste 0 -- -- 85
2019-12-04 10:00:00 2.4 3 Sur 9 Sudeste 0 -- -- 95
2019-12-04 09:00:00 -0.2 4 Sudeste 8 Sudeste 0 -- -- 97
2019-12-04 08:00:00 0 2 Norte 9 Sudeste 0 -- -- 98
2019-12-04 07:00:00 -0.4 3 Sudeste 8 Sudeste 0 -- -- 99
2019-12-04 06:00:00 -0.4 7 Este 9 Sudeste 0 -- -- 99
2019-12-04 05:00:00 -0.1 0 Calma 5 Este 0 -- -- 99
2019-12-04 04:00:00 0 5 Sudeste 8 Sudeste 0 -- -- 98
2019-12-04 03:00:00 0.1 0 Calma 9 Este 0 -- -- 97
2019-12-04 02:00:00 0.3 4 Sudeste 7 Sudeste 0 -- -- 98
2019-12-04 01:00:00 0.4 8 Sudeste 14 Este 0 -- -- 96
2019-12-04 00:00:00 0.2 5 Sudeste 10 Este 0 -- -- 96
2019-12-03 23:00:00 0.3 4 Sudeste 8 Sudeste 0 -- -- 96
2019-12-03 22:00:00 0.1 8 Sudeste 14 Sudeste 0 -- -- 96
2019-12-03 21:00:00 0.3 10 Sudeste 13 Sudeste 0 -- -- 96
2019-12-03 20:00:00 0.5 6 Sudeste 8 Sudeste 0 -- -- 95
2019-12-03 19:00:00 1 5 Sudeste 8 Sudeste 0 -- -- 94
2019-12-03 18:00:00 2.3 0 Calma 9 Noroeste 0 -- -- 89
2019-12-03 17:00:00 3.6 8 Noroeste 15 Oeste 0 -- -- 85
2019-12-03 16:00:00 5.2 12 Noroeste 21 Noroeste 0 -- -- 78
2019-12-03 15:00:00 5.2 13 Noroeste 20 Oeste 0 -- -- 79
2019-12-03 14:00:00 5.1 15 Noroeste 25 Oeste 0 -- -- 80
2019-12-03 13:00:00 5.1 18 Noroeste 27 Noroeste 0 -- -- 82
2019-12-03 12:00:00 3.9 21 Noroeste 27 Oeste 0 -- -- 84
2019-12-03 11:00:00 3.5 18 Noroeste 29 Oeste 0 -- -- 87
2019-12-03 10:00:00 2.9 18 Noroeste 27 Oeste 0 -- -- 89
2019-12-03 09:00:00 1.8 17 Noroeste 26 Noroeste 0 -- -- 94
2019-12-03 08:00:00 1.8 16 Noroeste 32 Noroeste 0 -- -- 93
2019-12-03 07:00:00 2.1 18 Noroeste 31 Noroeste 0 -- -- 92
2019-12-03 06:00:00 2.4 23 Noroeste 31 Noroeste 0 -- -- 91
2019-12-03 05:00:00 2.3 22 Noroeste 33 Noroeste 0 -- -- 91
2019-12-03 04:00:00 2.3 25 Noroeste 35 Noroeste 0 -- -- 90
2019-12-03 03:00:00 2.1 24 Noroeste 38 Noroeste 0 -- -- 92
2019-12-03 02:00:00 2.4 29 Noroeste 39 Noroeste 0 -- -- 91
2019-12-03 01:00:00 2.8 30 Noroeste 47 Noroeste 0 -- -- 89
2019-12-03 00:00:00 2.9 33 Noroeste 49 Noroeste 0 -- -- 90
2019-12-02 23:00:00 3.2 31 Noroeste 50 Noroeste 0 -- -- 90
2019-12-02 22:00:00 3.3 37 Noroeste 55 Noroeste 0 -- -- 91
2019-12-02 21:00:00 3.6 37 Noroeste 48 Noroeste 0 -- -- 91
2019-12-02 20:00:00 3.9 34 Noroeste 49 Noroeste 0 -- -- 91
2019-12-02 19:00:00 4.3 36 Noroeste 51 Noroeste 0 -- -- 90
2019-12-02 18:00:00 5.2 40 Noroeste 49 Noroeste 0 -- -- 87
2019-12-02 17:00:00 6.6 22 Noroeste 42 Noroeste 0 -- -- 79
2019-12-02 16:00:00 7.2 31 Norte 45 Noroeste 0 -- -- 76
2019-12-02 15:00:00 7.8 24 Noroeste 49 Norte 0 -- -- 77
2019-12-02 14:00:00 8.5 29 Noroeste 47 Norte 0 -- -- 71
2019-12-02 13:00:00 8.4 28 Noroeste 45 Noroeste 0 -- -- 74
2019-12-02 12:00:00 8.8 26 Noroeste 40 Noroeste 0 -- -- 79
2019-12-02 11:00:00 7.8 25 Noroeste 40 Noroeste 0 -- -- 81
2019-12-02 10:00:00 6.9 20 Noroeste 34 Noroeste 0 -- -- 86
2019-12-02 09:00:00 5.1 24 Noroeste 33 Noroeste 0 -- -- 91
2019-12-02 08:00:00 5.2 19 Noroeste 32 Noroeste 0 -- -- 91
2019-12-02 07:00:00 4.9 16 Noroeste 27 Noroeste 0 -- -- 92
2019-12-02 06:00:00 5.1 17 Noroeste 24 Noroeste 0 -- -- 92
2019-12-02 05:00:00 5.2 15 Noroeste 23 Noroeste 0 -- -- 91
2019-12-02 04:00:00 5.1 17 Noroeste 25 Noroeste 0 -- -- 93
2019-12-02 03:00:00 5.1 16 Noroeste 25 Noroeste 0 -- -- 94
2019-12-02 02:00:00 5.5 16 Noroeste 23 Noroeste 0 -- -- 92
2019-12-02 01:00:00 5.7 15 Noroeste 26 Noroeste 0 -- -- 91
2019-12-02 00:00:00 5.6 22 Noroeste 30 Noroeste 0 -- -- 92
2019-12-01 23:00:00 5.5 22 Noroeste 30 Noroeste 0 -- -- 93
2019-12-01 22:00:00 5.6 23 Noroeste 31 Noroeste 0 -- -- 94
2019-12-01 21:00:00 6.1 16 Noroeste 21 Noroeste 0 -- -- 93
2019-12-01 20:00:00 6.1 10 Noroeste 19 Oeste 0 -- -- 94
2019-12-01 19:00:00 6.6 13 Noroeste 22 Noroeste 0 -- -- 91
2019-12-01 18:00:00 7.3 11 Noroeste 17 Noroeste 0.2 -- -- 94
2019-12-01 17:00:00 8 3 Noroeste 9 Noroeste 0 -- -- 88
2019-12-01 16:00:00 9.5 5 Noroeste 13 Noroeste 0 -- -- 82
2019-12-01 15:00:00 8.5 8 Noroeste 17 Noroeste 0 -- -- 88
2019-12-01 14:00:00 6.6 14 Noroeste 19 Noroeste 0 -- -- 96
2019-12-01 13:00:00 6.9 12 Noroeste 18 Noroeste 0 -- -- 96
2019-12-01 12:00:00 8.6 0 Calma 7 Este 0 -- -- 90
2019-12-01 11:00:00 7.1 3 Sudeste 13 Este 0 -- -- 99
2019-12-01 10:00:00 4.4 10 Sudeste 13 Sudeste 0 -- -- 100
2019-12-01 09:00:00 3.5 0 Calma 9 Este 0 -- -- 100
2019-12-01 08:00:00 3.5 8 Este 10 Este 0 -- -- 100
2019-12-01 07:00:00 3.1 3 Sudeste 5 Sur 0 -- -- 100
2019-12-01 06:00:00 3.1 2 Este 9 Este 0 -- -- 100
2019-12-01 05:00:00 2.2 2 Sudeste 7 Sudeste 0 -- -- 99
2019-12-01 04:00:00 3.5 8 Este 12 Sudeste 0 -- -- 99
2019-12-01 03:00:00 3.1 7 Sudeste 12 Sudeste 0 -- -- 99
2019-12-01 02:00:00 3.8 5 Sudeste 8 Sudeste 0 -- -- 97
2019-12-01 01:00:00 5.4 2 Sudeste 6 Este 0 -- -- 97
2019-12-01 00:00:00 5.9 5 Sur 9 Sudoeste 0 -- -- 97
2019-11-30 23:00:00 6.4 3 Sur 9 Este 0 -- -- 97
2019-11-30 22:00:00 6.7 6 Sur 17 Sudeste 0 -- -- 97
2019-11-30 21:00:00 7.1 8 Sudeste 14 Sur 0.2 -- -- 97
2019-11-30 20:00:00 7.1 8 Sudeste 31 Noroeste 2.2 -- -- 98
2019-11-30 19:00:00 7.2 24 Noroeste 31 Noroeste 4.8 -- -- 98
2019-11-30 18:00:00 7.4 12 Noroeste 47 Noroeste 6.2 -- -- 98
2019-11-30 17:00:00 7.5 50 Noroeste 67 Noroeste 9 -- -- 96
2019-11-30 16:00:00 12.6 29 Sudeste 43 Sudeste 0.2 -- -- 81
2019-11-30 15:00:00 13.5 37 Sudeste 50 Sudeste 0 -- -- 74
2019-11-30 14:00:00 14.2 35 Sudeste 59 Sudeste 0 -- -- 70
2019-11-30 13:00:00 13.7 30 Sudeste 43 Sudeste 0 -- -- 71
2019-11-30 12:00:00 12.7 22 Sudeste 41 Sudeste 0 -- -- 72
2019-11-30 11:00:00 12.6 22 Sudeste 36 Sudeste 0 -- -- 71
2019-11-30 10:00:00 11.1 25 Sudeste 37 Sudeste 0 -- -- 70
2019-11-30 09:00:00 9.8 19 Sur 32 Sudeste 0 -- -- 72
2019-11-30 08:00:00 8.9 19 Sudeste 33 Sudeste 0 -- -- 73
2019-11-30 07:00:00 8.6 19 Sudeste 27 Sudeste 0 -- -- 72
2019-11-30 06:00:00 7.7 19 Sur 31 Sur 0 -- -- 76
2019-11-30 05:00:00 7.7 22 Sur 31 Sur 0 -- -- 75
2019-11-30 04:00:00 7.5 20 Sur 29 Sudeste 0 -- -- 76
2019-11-30 03:00:00 6.4 15 Sur 23 Sur 0 -- -- 81
2019-11-30 02:00:00 5.3 11 Sudeste 15 Sudeste 0 -- -- 89
2019-11-30 01:00:00 5.4 9 Sudeste 15 Sudeste 0 -- -- 89
2019-11-30 00:00:00 5.3 9 Sudeste 12 Sudeste 0 -- -- 91
2019-11-29 23:00:00 4.8 8 Sudeste 11 Este 0 -- -- 93
2019-11-29 22:00:00 5.1 8 Sudeste 10 Este 0 -- -- 91
2019-11-29 21:00:00 5.4 8 Sudeste 11 Sudeste 0 -- -- 92
2019-11-29 20:00:00 5.9 10 Sudeste 12 Sudeste 0 -- -- 91
2019-11-29 19:00:00 6.7 9 Sudeste 12 Sudeste 0 -- -- 89
2019-11-29 18:00:00 8.2 8 Sudeste 10 Sudeste 0 -- -- 84
2019-11-29 17:00:00 11.2 2 Sur 17 Noroeste 0 -- -- 70
2019-11-29 16:00:00 13.4 11 Noroeste 22 Noroeste 0 -- -- 62
2019-11-29 15:00:00 12.8 15 Norte 30 Noroeste 0 -- -- 64
2019-11-29 14:00:00 13.2 20 Noroeste 31 Noroeste 0 -- -- 63
2019-11-29 13:00:00 12.6 19 Norte 31 Noroeste 0 -- -- 70
2019-11-29 12:00:00 12 21 Noroeste 31 Noroeste 0 -- -- 74
2019-11-29 11:00:00 11.5 4 Noroeste 10 Noroeste 0 -- -- 82
2019-11-29 10:00:00 10.1 3 Sudeste 8 Norte 0 -- -- 88
2019-11-29 09:00:00 10.2 9 Norte 19 Noroeste 0 -- -- 83
2019-11-29 08:00:00 10.1 19 Noroeste 28 Norte 0 -- -- 85
2019-11-29 07:00:00 10.1 19 Noroeste 26 Noroeste 0 -- -- 91
2019-11-29 06:00:00 10.2 11 Noroeste 14 Norte 0 -- -- 96
2019-11-29 05:00:00 10.2 10 Noroeste 31 Noroeste 0.6 -- -- 96
2019-11-29 04:00:00 11.4 12 Noroeste 18 Noroeste 0 -- -- 88
2019-11-29 03:00:00 11.5 10 Noroeste 32 Oeste 0 -- -- 86
2019-11-29 02:00:00 12.2 17 Oeste 42 Oeste 0 -- -- 83
2019-11-29 01:00:00 12.2 8 Noroeste 21 Sudeste 0 -- -- 81
2019-11-29 00:00:00 10.2 9 Sudeste 21 Sudeste 0 -- -- 92
2019-11-28 23:00:00 10.3 13 Sudeste 21 Sudeste 0 -- -- 91
2019-11-28 22:00:00 10.5 13 Sudeste 20 Sudeste 0 -- -- 91
2019-11-28 21:00:00 10.6 10 Sudeste 17 Sudeste 0 -- -- 91
2019-11-28 20:00:00 10.1 9 Sudeste 16 Sur 0.2 -- -- 95
2019-11-28 19:00:00 10.3 8 Sur 14 Sudeste 0.4 -- -- 93
2019-11-28 18:00:00 10.8 8 Sudoeste 19 Sur 0 -- -- 88
2019-11-28 17:00:00 10.6 10 Sudeste 19 Sur 0.6 -- -- 90
2019-11-28 16:00:00 12.1 9 Sur 23 Sur 0 -- -- 79
2019-11-28 15:00:00 12.8 13 Sudeste 27 Sur 0 -- -- 75
2019-11-28 14:00:00 12.4 11 Sudeste 20 Sudeste 0 -- -- 79
2019-11-28 13:00:00 12.1 14 Sudeste 28 Sur 0 -- -- 79
2019-11-28 12:00:00 13.1 17 Sur 28 Sudoeste 0 -- -- 74
2019-11-28 11:00:00 11.6 12 Sur 24 Sur 0 -- -- 77
2019-11-28 10:00:00 11.6 15 Sudoeste 36 Sudoeste 0 -- -- 79
2019-11-28 09:00:00 10.8 10 Noroeste 22 Noroeste 0 -- -- 79
2019-11-28 08:00:00 9.6 12 Noroeste 46 Oeste 0 -- -- 82
2019-11-28 07:00:00 10.9 26 Sudoeste 48 Sudoeste 0 -- -- 75
2019-11-28 06:00:00 10.8 27 Oeste 53 Oeste 0 -- -- 77
2019-11-28 05:00:00 9.5 11 Sur 24 Sudoeste 0 -- -- 85
2019-11-28 04:00:00 9.1 4 Sur 22 Sudoeste 0 -- -- 86
2019-11-28 03:00:00 9.1 9 Sudoeste 13 Sudoeste 0 -- -- 86
2019-11-28 02:00:00 9.5 6 Oeste 16 Oeste 0 -- -- 84
2019-11-28 01:00:00 8.8 7 Sudeste 18 Este 0 -- -- 91
2019-11-28 00:00:00 8.6 9 Sudeste 17 Sur 0 -- -- 93
2019-11-27 23:00:00 8.6 11 Sudeste 20 Sudeste 0 -- -- 94
2019-11-27 22:00:00 8.6 11 Sudeste 20 Sur 0.6 -- -- 94
2019-11-27 21:00:00 8.5 13 Sur 17 Sur 0.8 -- -- 95
2019-11-27 20:00:00 9 13 Sur 19 Sur 1 -- -- 93
2019-11-27 19:00:00 8.6 15 Sudeste 19 Sur 0.2 -- -- 93
2019-11-27 18:00:00 9.7 13 Oeste 24 Oeste 1 -- -- 81
2019-11-27 17:00:00 9.7 12 Sudoeste 21 Sur 0.6 -- -- 85
2019-11-27 16:00:00 12.2 13 Sudoeste 22 Oeste 0 -- -- 66
2019-11-27 15:00:00 12.1 14 Sur 25 Sur 0 -- -- 70
2019-11-27 14:00:00 13.1 10 Noroeste 39 Noroeste 0 -- -- 62
2019-11-27 06:00:00 -- -- -- -- -- -- -- -- --
2019-11-27 05:00:00 11.2 45 Oeste 78 Oeste 0 -- -- 60
2019-11-27 04:00:00 11 42 Oeste 63 Sudoeste 0 -- -- 66
2019-11-27 03:00:00 11.8 18 Oeste 43 Sudoeste 0 -- -- 68
2019-11-27 02:00:00 12.3 20 Oeste 35 Oeste 0 -- -- 73
2019-11-27 01:00:00 11.8 8 Sudoeste 32 Oeste 1.4 -- -- 78
2019-11-27 00:00:00 12 3 Este 30 Oeste 3 -- -- 88
2019-11-26 23:00:00 12.4 6 Oeste 61 Sudeste 1.8 -- -- 87
2019-11-26 22:00:00 13.6 44 Sudeste 74 Sudeste 0 -- -- 78
2019-11-26 21:00:00 13 49 Sudeste 68 Sudeste 0.2 -- -- 80
2019-11-26 20:00:00 13.4 44 Sudeste 76 Sudeste 0 -- -- 77
2019-11-26 19:00:00 13.7 41 Sudeste 57 Sur 0 -- -- 76
2019-11-26 18:00:00 12.9 25 Sudeste 44 Sudeste 0 -- -- 79
2019-11-26 17:00:00 13.8 30 Sudeste 45 Sudeste 0 -- -- 75
2019-11-26 16:00:00 14.2 29 Sudeste 44 Sudeste 0 -- -- 75
2019-11-26 15:00:00 13.4 20 Sudeste 35 Sudeste 0 -- -- 76
2019-11-26 14:00:00 13.1 25 Sudeste 42 Sudeste 0 -- -- 77
2019-11-26 13:00:00 12.8 26 Sudeste 44 Sudeste 0 -- -- 77
2019-11-26 12:00:00 12.8 30 Sudeste 42 Sudeste 0 -- -- 73
2019-11-26 11:00:00 11.9 13 Sur 21 Sur 0 -- -- 78
2019-11-26 10:00:00 10 10 Sur 24 Sur 0 -- -- 83
2019-11-26 09:00:00 8.4 17 Sur 25 Sur 0 -- -- 87
2019-11-26 08:00:00 7.2 15 Sudeste 21 Sudeste 0 -- -- 90
2019-11-26 07:00:00 7.5 10 Sudeste 17 Sudeste 0 -- -- 90
2019-11-26 06:00:00 6.9 8 Sudeste 13 Sudeste 0 -- -- 93
2019-11-26 05:00:00 7 8 Sudeste 13 Sudeste 0 -- -- 93
2019-11-26 04:00:00 6.8 9 Sudeste 12 Sudeste 0 -- -- 94
2019-11-26 03:00:00 6.9 8 Sudeste 15 Sudeste 0 -- -- 95
2019-11-26 02:00:00 6.9 10 Sudeste 14 Sudeste 0 -- -- 95
2019-11-26 01:00:00 6.9 9 Sudeste 14 Sudeste 0 -- -- 96
2019-11-26 00:00:00 6.9 10 Sudeste 15 Sudeste 0 -- -- 93
2019-11-25 23:00:00 7 10 Sudeste 15 Sudeste 0 -- -- 93
2019-11-25 22:00:00 7.9 10 Sudeste 15 Sudeste 0 -- -- 91
2019-11-25 21:00:00 7.9 7 Sudeste 14 Sudeste 0 -- -- 93
2019-11-25 20:00:00 8.1 12 Sudeste 14 Sudeste 0 -- -- 94
2019-11-25 19:00:00 9.2 8 Sudeste 12 Sudeste 0 -- -- 93
2019-11-25 18:00:00 9.7 7 Sudeste 9 Sudeste 0 -- -- 92
2019-11-25 17:00:00 11.7 4 Sur 13 Sudeste 0 -- -- 86
2019-11-25 16:00:00 13.2 6 Sudeste 10 Sudeste 0 -- -- 78
2019-11-25 15:00:00 14.8 4 Sur 9 Sudoeste 0 -- -- 72
2019-11-25 14:00:00 14 3 Sudoeste 10 Sur 0 -- -- 74
2019-11-25 13:00:00 14.9 3 Este 10 Sudeste 0 -- -- 71
2019-11-25 12:00:00 11.3 3 Sudeste 6 Nordeste 0 -- -- 84
2019-11-25 11:00:00 9 0 Calma 6 Este 0 -- -- 90
2019-11-25 10:00:00 7.4 0 Calma 6 Este 0 -- -- 94
2019-11-25 09:00:00 6.6 3 Sudoeste 8 Noroeste 0 -- -- 95
2019-11-25 08:00:00 6.5 2 Nordeste 19 Este 0 -- -- 94
2019-11-25 07:00:00 5.9 5 Este 14 Este 0 -- -- 96
2019-11-25 06:00:00 6.2 6 Sudeste 14 Sudeste 0 -- -- 93
2019-11-25 05:00:00 6.5 8 Sudeste 14 Sudeste 0 -- -- 93
2019-11-25 04:00:00 6.4 7 Sudeste 12 Sur 0 -- -- 95
2019-11-25 03:00:00 6.2 6 Sur 13 Sudeste 0 -- -- 95
2019-11-25 02:00:00 6.3 9 Sudeste 18 Sudeste 0 -- -- 94
2019-11-25 01:00:00 6.2 12 Sudeste 19 Sudeste 0 -- -- 96
2019-11-25 00:00:00 6.3 8 Sur 17 Sudeste 1.2 -- -- 96
2019-11-24 23:00:00 6.4 8 Sudeste 12 Sudeste 0.8 -- -- 94
2019-11-24 22:00:00 6.4 6 Sudeste 13 Sudeste 0 -- -- 91
2019-11-24 21:00:00 5.7 10 Sudeste 16 Sudeste 0 -- -- 93
2019-11-24 20:00:00 5.2 10 Sudeste 14 Sudeste 0 -- -- 95
2019-11-24 19:00:00 5.9 9 Sudeste 14 Este 0 -- -- 93
2019-11-24 18:00:00 6.9 6 Sudeste 10 Sudeste 0 -- -- 91
2019-11-24 17:00:00 8.3 3 Nordeste 10 Noroeste 0 -- -- 85
2019-11-24 16:00:00 8.6 12 Oeste 26 Noroeste 0 -- -- 83
2019-11-24 15:00:00 8.8 14 Noroeste 22 Oeste 0 -- -- 82
2019-11-24 14:00:00 9.1 7 Noroeste 15 Noroeste 0 -- -- 86
2019-11-24 13:00:00 7.6 9 Noroeste 15 Noroeste 0 -- -- 93
2019-11-24 12:00:00 6.7 6 Noroeste 12 Noroeste 0.2 -- -- 97
2019-11-24 11:00:00 6.1 3 Oeste 9 Norte 0 -- -- 94
2019-11-24 10:00:00 6.3 5 Noroeste 10 Noroeste 0 -- -- 96
2019-11-24 09:00:00 5.2 6 Noroeste 13 Norte 0.6 -- -- 96
2019-11-24 08:00:00 4.8 4 Este 8 Norte 0.2 -- -- 95
2019-11-24 07:00:00 4.5 3 Este 12 Norte 0 -- -- 95
2019-11-24 06:00:00 4.9 13 Noroeste 17 Noroeste 0.8 -- -- 96
2019-11-24 05:00:00 4.8 5 Norte 17 Noroeste 0.6 -- -- 97
2019-11-24 04:00:00 4.9 12 Noroeste 26 Noroeste 0.2 -- -- 95
2019-11-24 03:00:00 5.4 11 Noroeste 22 Noroeste 0.8 -- -- 96
2019-11-24 02:00:00 5.7 16 Noroeste 29 Noroeste 0.8 -- -- 95
2019-11-24 01:00:00 5.7 20 Noroeste 27 Noroeste 1 -- -- 96
2019-11-24 00:00:00 6 13 Noroeste 30 Noroeste 0.2 -- -- 94
2019-11-23 23:00:00 6.1 19 Noroeste 27 Noroeste 0.2 -- -- 92
2019-11-23 22:00:00 6 21 Noroeste 30 Noroeste 0.6 -- -- 95
2019-11-23 21:00:00 6 22 Noroeste 30 Noroeste 0.4 -- -- 93
2019-11-23 20:00:00 5.9 26 Noroeste 36 Noroeste 0.6 -- -- 94
2019-11-23 19:00:00 5.8 21 Noroeste 39 Noroeste 0.4 -- -- 95
2019-11-23 18:00:00 6.4 22 Noroeste 39 Noroeste 0.2 -- -- 90
2019-11-23 17:00:00 6.5 29 Noroeste 37 Noroeste 0.2 -- -- 90
2019-11-23 16:00:00 6.4 16 Noroeste 59 Noroeste 0.4 -- -- 91
2019-11-23 15:00:00 6.5 24 Noroeste 42 Oeste 0.6 -- -- 94
2019-11-23 14:00:00 6.6 26 Noroeste 39 Noroeste 0.4 -- -- 92
2019-11-23 13:00:00 6.5 25 Noroeste 46 Noroeste 0.2 -- -- 92
2019-11-23 12:00:00 6.2 28 Noroeste 52 Oeste 1.2 -- -- 90
2019-11-23 11:00:00 6.3 35 Oeste 53 Oeste 3.2 -- -- 86
2019-11-23 10:00:00 5.7 30 Oeste 49 Oeste 3.4 -- -- 86
2019-11-23 09:00:00 5.7 16 Oeste 39 Oeste 2.2 -- -- 84
2019-11-23 08:00:00 6.7 19 Oeste 37 Oeste 0.4 -- -- 84
2019-11-23 07:00:00 6.2 8 Sur 33 Sudoeste 3.2 -- -- 91
2019-11-23 06:00:00 6.6 21 Oeste 55 Sudoeste 1.8 -- -- 86
2019-11-23 05:00:00 7.5 5 Sudeste 17 Sudeste 0.2 -- -- 90
2019-11-23 04:00:00 7.8 10 Sudeste 17 Sudoeste 0 -- -- 87
2019-11-23 03:00:00 7.3 11 Sur 18 Sudeste 0 -- -- 90
2019-11-23 02:00:00 7.6 8 Sudeste 35 Sudeste 0 -- -- 90
2019-11-23 01:00:00 8.3 12 Sudeste 22 Sudeste 0 -- -- 87
2019-11-23 00:00:00 8.3 22 Sudeste 28 Sudeste 0 -- -- 89
2019-11-22 23:00:00 8.3 11 Sudeste 47 Sudeste 0 -- -- 89
2019-11-22 22:00:00 9.1 35 Sur 67 Sur 0 -- -- 88
2019-11-22 21:00:00 9.5 40 Sudeste 55 Sudeste 0.6 -- -- 89
2019-11-22 20:00:00 9 32 Sudeste 67 Sudeste 0 -- -- 91
2019-11-22 19:00:00 8.3 50 Sudeste 63 Sudeste 0.4 -- -- 94
2019-11-22 18:00:00 8.4 43 Sudeste 69 Sudeste 0 -- -- 91
2019-11-22 17:00:00 7.8 55 Sudeste 71 Sudeste 0.8 -- -- 92
2019-11-22 16:00:00 7.8 54 Sudeste 71 Sudeste 0.6 -- -- 91
2019-11-22 15:00:00 7.7 50 Sudeste 70 Sudeste 0.2 -- -- 90
2019-11-22 14:00:00 7.4 48 Sudeste 62 Sudeste 0.2 -- -- 89
2019-11-22 13:00:00 6.8 45 Sudeste 66 Sudeste 0.8 -- -- 93
2019-11-22 12:00:00 7 48 Sudeste 68 Sudeste 3 -- -- 92
2019-11-22 11:00:00 6.6 46 Sudeste 61 Sudeste 3.4 -- -- 92
2019-11-22 10:00:00 6.7 48 Sudeste 60 Sudeste 0.8 -- -- 89
2019-11-22 09:00:00 6.8 40 Sudeste 52 Sudeste 0.2 -- -- 87
2019-11-22 08:00:00 6.7 35 Sudeste 46 Sudeste 0 -- -- 86
2019-11-22 07:00:00 6.9 28 Sudeste 42 Sudeste 0 -- -- 82
2019-11-22 06:00:00 6.7 27 Sudeste 42 Sur 0 -- -- 84
2019-11-22 05:00:00 6.1 26 Sudeste 34 Sudeste 0 -- -- 84
2019-11-22 04:00:00 5.7 18 Sudeste 31 Sudeste 0 -- -- 87
2019-11-22 03:00:00 5.6 18 Sudeste 31 Sudeste 0 -- -- 87
2019-11-22 02:00:00 6.1 19 Sudeste 31 Sudeste 0 -- -- 86
2019-11-22 01:00:00 5.9 17 Sudeste 29 Sudeste 0 -- -- 86
2019-11-22 00:00:00 5.2 13 Sudeste 30 Sudeste 0 -- -- 88
2019-11-21 23:00:00 5.8 11 Sudeste 18 Sudeste 0 -- -- 84
2019-11-21 22:00:00 6 14 Sudeste 18 Sudeste 0 -- -- 84
2019-11-21 21:00:00 5.8 11 Sudeste 16 Sudeste 0 -- -- 85
2019-11-21 20:00:00 5.4 10 Sur 17 Sur 0 -- -- 86
2019-11-21 19:00:00 6.8 12 Sur 18 Sur 0 -- -- 82
2019-11-21 18:00:00 7.7 7 Sudeste 23 Sur 0 -- -- 81
2019-11-21 17:00:00 8.6 13 Sur 28 Sudeste 0 -- -- 77
2019-11-21 16:00:00 9 18 Sudeste 29 Sudeste 0 -- -- 75
2019-11-21 15:00:00 9.1 16 Sur 29 Sudeste 0 -- -- 75
2019-11-21 14:00:00 9 15 Sur 29 Sudeste 0 -- -- 74
2019-11-21 13:00:00 10.4 15 Sur 26 Sudeste 0 -- -- 71
2019-11-21 12:00:00 9.5 17 Sur 32 Sudeste 0 -- -- 75
2019-11-21 11:00:00 7.4 18 Sudeste 25 Sudeste 0 -- -- 82
2019-11-21 10:00:00 6.5 21 Sudeste 26 Sudeste 0 -- -- 85
2019-11-21 09:00:00 5.7 15 Sudeste 31 Sudeste 0 -- -- 87
2019-11-21 08:00:00 5.1 20 Sudeste 30 Sudeste 0 -- -- 89
2019-11-21 07:00:00 5.4 23 Sudeste 32 Sudeste 0 -- -- 87
2019-11-21 06:00:00 5.2 14 Sur 27 Sudeste 0 -- -- 89
2019-11-21 05:00:00 5.1 14 Sudeste 27 Sudeste 0 -- -- 90
2019-11-21 04:00:00 5.5 18 Sudeste 34 Sudeste 0 -- -- 89
2019-11-21 03:00:00 5.5 27 Sudeste 34 Sudeste 0 -- -- 91
2019-11-21 02:00:00 5.1 24 Sudeste 34 Sudeste 0 -- -- 92
2019-11-21 01:00:00 5 22 Sudeste 28 Sudeste 0.2 -- -- 91
2019-11-21 00:00:00 5 16 Sudeste 28 Sudeste 0.2 -- -- 91
2019-11-20 23:00:00 5.3 22 Sudeste 36 Sudeste 0.2 -- -- 86
2019-11-20 22:00:00 5.6 24 Sudeste 28 Sudeste 0 -- -- 82
2019-11-20 21:00:00 6.1 24 Sudeste 39 Sudeste 0 -- -- 78
2019-11-20 20:00:00 7.1 28 Sudeste 36 Sudeste 0 -- -- 66
2019-11-20 19:00:00 7 24 Sudeste 32 Sudeste 0 -- -- 68
2019-11-20 18:00:00 7.3 23 Sudeste 35 Sudeste 0 -- -- 68
2019-11-20 17:00:00 8 25 Sudeste 37 Sudeste 0 -- -- 67
2019-11-20 16:00:00 8.1 27 Sudeste 41 Sudeste 0 -- -- 66
2019-11-20 15:00:00 9.3 29 Sudeste 42 Sudeste 0 -- -- 63
2019-11-20 14:00:00 9.1 30 Sudeste 42 Sudeste 0 -- -- 67
2019-11-20 13:00:00 8.9 29 Sudeste 40 Sudeste 0 -- -- 68
2019-11-20 12:00:00 6.6 30 Sudeste 37 Sudeste 0 -- -- 72
2019-11-20 11:00:00 5.9 26 Sudeste 33 Sudeste 0 -- -- 74
2019-11-20 10:00:00 4.2 24 Sudeste 33 Sudeste 0 -- -- 75
2019-11-20 09:00:00 2.3 23 Sudeste 30 Sudeste 0 -- -- 81
2019-11-20 08:00:00 1.1 5 Sudeste 13 Sudeste 0 -- -- 87
2019-11-20 07:00:00 1.2 6 Sudeste 15 Sudeste 0 -- -- 85
2019-11-20 06:00:00 1.2 14 Sudeste 19 Sur 0 -- -- 85
2019-11-20 05:00:00 1.9 10 Sur 18 Sur 0 -- -- 82
2019-11-20 04:00:00 2.3 12 Sur 18 Sur 0 -- -- 81
2019-11-20 03:00:00 2.4 12 Sudeste 18 Sudeste 0 -- -- 83
2019-11-20 02:00:00 2.2 12 Sudeste 17 Sudeste 0 -- -- 85
2019-11-20 01:00:00 2 10 Sudeste 14 Sudeste 0 -- -- 88
2019-11-20 00:00:00 2.1 9 Sudeste 13 Sudeste 0 -- -- 89
2019-11-19 23:00:00 2 7 Sudeste 12 Sudeste 0 -- -- 90
2019-11-19 22:00:00 2.1 9 Sudeste 12 Sudeste 0 -- -- 90
2019-11-19 21:00:00 3 6 Sudeste 13 Sudeste 0 -- -- 86
2019-11-19 20:00:00 2.8 11 Sudeste 15 Sudeste 0 -- -- 88
2019-11-19 19:00:00 3 9 Sudeste 12 Sudeste 0 -- -- 88
2019-11-19 18:00:00 4.5 9 Sudeste 10 Sudeste 0 -- -- 84
2019-11-19 17:00:00 8.5 0 Calma 8 Noroeste 0 -- -- 65
2019-11-19 16:00:00 9.8 4 Oeste 17 Oeste 0 -- -- 57
2019-11-19 15:00:00 9.3 17 Oeste 26 Oeste 0 -- -- 62
2019-11-19 14:00:00 8.3 17 Noroeste 26 Noroeste 0 -- -- 67
2019-11-19 13:00:00 7.9 18 Noroeste 30 Noroeste 0 -- -- 68
2019-11-19 12:00:00 6.3 22 Noroeste 33 Noroeste 0 -- -- 77
2019-11-19 11:00:00 5 26 Noroeste 35 Noroeste 0 -- -- 82
2019-11-19 10:00:00 4 22 Noroeste 32 Noroeste 0 -- -- 84
2019-11-19 09:00:00 2.2 20 Noroeste 27 Noroeste 0 -- -- 91
2019-11-19 08:00:00 2.2 15 Noroeste 22 Noroeste 0 -- -- 88
2019-11-19 07:00:00 1 17 Noroeste 33 Noroeste 0 -- -- 94
2019-11-19 06:00:00 3.2 17 Noroeste 28 Noroeste 0 -- -- 83
2019-11-19 05:00:00 2.8 20 Noroeste 25 Noroeste 0 -- -- 87
2019-11-19 04:00:00 2.2 15 Noroeste 21 Noroeste 0 -- -- 90
2019-11-19 03:00:00 2.7 13 Noroeste 22 Noroeste 0 -- -- 87
2019-11-19 02:00:00 1.5 18 Noroeste 28 Noroeste 0 -- -- 92
2019-11-19 01:00:00 1.3 17 Noroeste 26 Noroeste 0 -- -- 92
2019-11-19 00:00:00 1.8 22 Noroeste 28 Noroeste 0 -- -- 88
2019-11-18 23:00:00 2.2 23 Noroeste 31 Noroeste 0 -- -- 89
2019-11-18 22:00:00 2.1 20 Noroeste 50 Noroeste 0 -- -- 88
2019-11-18 21:00:00 3.8 31 Noroeste 49 Noroeste 0 -- -- 74
2019-11-18 20:00:00 2.9 19 Noroeste 31 Noroeste 0 -- -- 86
2019-11-18 19:00:00 3.5 19 Noroeste 31 Noroeste 0 -- -- 82
2019-11-18 18:00:00 4.2 21 Noroeste 33 Noroeste 0 -- -- 82
2019-11-18 17:00:00 5.2 25 Noroeste 43 Noroeste 0 -- -- 72
2019-11-18 16:00:00 4.9 31 Noroeste 48 Noroeste 0 -- -- 72
2019-11-18 15:00:00 5.4 26 Noroeste 47 Noroeste 0 -- -- 72
2019-11-18 14:00:00 5.3 31 Norte 45 Noroeste 0 -- -- 73
2019-11-18 13:00:00 5.2 24 Noroeste 42 Noroeste 0 -- -- 76
2019-11-18 12:00:00 5.3 19 Norte 41 Noroeste 0 -- -- 77
2019-11-18 11:00:00 4.7 25 Noroeste 38 Noroeste 0 -- -- 82
2019-11-18 10:00:00 4.2 24 Noroeste 31 Noroeste 0 -- -- 84
2019-11-18 09:00:00 3.5 21 Norte 40 Norte 0 -- -- 84
2019-11-18 08:00:00 2.8 22 Noroeste 30 Noroeste 0 -- -- 91
2019-11-18 07:00:00 3.2 18 Noroeste 38 Noroeste 0 -- -- 91
2019-11-18 06:00:00 3.9 22 Noroeste 40 Noroeste 0 -- -- 91
2019-11-18 05:00:00 4.3 29 Noroeste 37 Noroeste 0 -- -- 92
2019-11-18 04:00:00 4.2 23 Noroeste 31 Noroeste 0 -- -- 97
2019-11-18 03:00:00 4.2 22 Noroeste 31 Noroeste 0 -- -- 98
2019-11-18 02:00:00 4.7 17 Noroeste 26 Noroeste 0.2 -- -- 98
2019-11-18 01:00:00 5 16 Noroeste 22 Noroeste 0.6 -- -- 97
2019-11-18 00:00:00 5.1 6 Noroeste 12 Noroeste 0 -- -- 96
2019-11-17 23:00:00 4.7 3 Este 12 Sudoeste 0.2 -- -- 96
2019-11-17 22:00:00 5.2 3 Sudeste 12 Sudeste 0 -- -- 95
2019-11-17 21:00:00 4.9 5 Este 12 Sudeste 0 -- -- 95
2019-11-17 20:00:00 5.1 5 Sudeste 13 Sudeste 0 -- -- 95
2019-11-17 19:00:00 5.6 0 Calma 12 Noroeste 0 -- -- 95
2019-11-17 18:00:00 6.1 4 Este 8 Este 0.2 -- -- 96
2019-11-17 17:00:00 6.9 2 Oeste 6 Noroeste 0 -- -- 93
2019-11-17 16:00:00 7 4 Noroeste 9 Norte 0 -- -- 90
2019-11-17 15:00:00 7.5 4 Oeste 17 Norte 0 -- -- 88
2019-11-17 14:00:00 6.4 7 Noroeste 12 Noroeste 0 -- -- 91
2019-11-17 13:00:00 6.6 3 Noroeste 9 Noroeste 0.4 -- -- 93
2019-11-17 12:00:00 5.5 4 Noroeste 13 Noroeste 0.4 -- -- 93
2019-11-17 11:00:00 5 2 Norte 6 Este 0.2 -- -- 97
2019-11-17 10:00:00 4.1 2 Norte 6 Oeste 0 -- -- 98
2019-11-17 09:00:00 3.5 3 Sudoeste 5 Nordeste 0 -- -- 98
2019-11-17 08:00:00 3 0 Calma 3 Oeste 0 -- -- 98
2019-11-17 07:00:00 3 0 Calma 3 Sudoeste 0.2 -- -- 98
2019-11-17 06:00:00 3.2 3 Este 4 Este 0 -- -- 97
2019-11-17 05:00:00 3 0 Calma 3 Sudoeste 0.2 -- -- 96
2019-11-17 04:00:00 3.1 3 Sudeste 5 Este 0 -- -- 95
2019-11-17 03:00:00 3.2 0 Calma 9 Norte 0.2 -- -- 92
2019-11-17 02:00:00 3.5 5 Norte 12 Norte 0 -- -- 89
2019-11-17 01:00:00 3.7 5 Norte 17 Norte 0 -- -- 88
2019-11-17 00:00:00 3.7 2 Norte 10 Noroeste 0 -- -- 87
2019-11-16 23:00:00 3.7 8 Norte 17 Noroeste 0 -- -- 88
2019-11-16 22:00:00 3 5 Sudeste 9 Sudeste 0 -- -- 94
2019-11-16 21:00:00 3.2 2 Noroeste 5 Noroeste 0.2 -- -- 98
2019-11-16 20:00:00 2.7 3 Noroeste 5 Noroeste 0.2 -- -- 97
2019-11-16 19:00:00 2.7 3 Este 7 Oeste 0.8 -- -- 97
2019-11-16 18:00:00 2.8 3 Oeste 12 Oeste 0.6 -- -- 96
2019-11-16 17:00:00 3.7 3 Noroeste 10 Noroeste 0.2 -- -- 94
2019-11-16 16:00:00 4.5 6 Noroeste 39 Noroeste 0.6 -- -- 91
2019-11-16 15:00:00 4.7 16 Noroeste 32 Oeste 0.4 -- -- 88
2019-11-16 14:00:00 4.4 15 Oeste 37 Noroeste 0.8 -- -- 87
2019-11-16 13:00:00 4.2 13 Oeste 35 Oeste 1.6 -- -- 86
2019-11-16 12:00:00 3 7 Sur 18 Sur 1.2 -- -- 91
2019-11-16 11:00:00 3.3 7 Sudeste 18 Sur 0 -- -- 87
2019-11-16 10:00:00 2.9 4 Sudoeste 17 Sudeste 0 -- -- 94
2019-11-16 09:00:00 0.4 6 Sudeste 10 Sudeste 0 -- -- 98
2019-11-16 08:00:00 -0.3 7 Sudeste 9 Sudeste 0 -- -- 98
2019-11-16 07:00:00 0.7 0 Calma 10 Noroeste 0 -- -- 98
2019-11-16 06:00:00 1.2 10 Noroeste 12 Noroeste 0 -- -- 96
2019-11-16 05:00:00 2 10 Noroeste 17 Noroeste 0 -- -- 94
2019-11-16 04:00:00 2.1 15 Noroeste 21 Noroeste 0 -- -- 94
2019-11-16 03:00:00 1.8 13 Noroeste 20 Noroeste 0 -- -- 95
2019-11-16 02:00:00 1.5 16 Norte 20 Noroeste 0 -- -- 96
2019-11-16 01:00:00 1.3 15 Noroeste 21 Noroeste 0 -- -- 96
2019-11-16 00:00:00 1.2 13 Noroeste 21 Noroeste 0 -- -- 96
2019-11-15 23:00:00 1.5 17 Noroeste 25 Noroeste 0 -- -- 97
2019-11-15 22:00:00 1.5 19 Noroeste 26 Noroeste 0 -- -- 98
2019-11-15 21:00:00 1.5 14 Noroeste 28 Noroeste 0 -- -- 97
2019-11-15 20:00:00 1.9 14 Noroeste 29 Oeste 0.4 -- -- 95
2019-11-15 19:00:00 2.7 21 Noroeste 31 Noroeste 0 -- -- 94
2019-11-15 18:00:00 3 11 Noroeste 42 Noroeste 0.2 -- -- 89
2019-11-15 17:00:00 4.6 21 Noroeste 41 Noroeste 0 -- -- 86
2019-11-15 16:00:00 5.1 21 Noroeste 39 Noroeste 0 -- -- 75
2019-11-15 15:00:00 5.3 27 Noroeste 39 Noroeste 0.2 -- -- 83
2019-11-15 14:00:00 4.8 21 Noroeste 40 Oeste 0 -- -- 90
2019-11-15 13:00:00 4.9 30 Oeste 48 Oeste 1.2 -- -- 89
2019-11-15 12:00:00 4 32 Oeste 54 Oeste 0.4 -- -- 86
2019-11-15 11:00:00 3.6 26 Sudoeste 46 Sudoeste 0 -- -- 88
2019-11-15 10:00:00 3.8 26 Sudoeste 53 Sudoeste 0.2 -- -- 86
2019-11-15 09:00:00 3.3 23 Sudoeste 46 Sudoeste 1.2 -- -- 85
2019-11-15 08:00:00 2.4 6 Sur 30 Sur 1 -- -- 91
2019-11-15 07:00:00 2.3 15 Sudoeste 26 Sudoeste 0.6 -- -- 89
2019-11-15 06:00:00 3 11 Sur 16 Sur 0 -- -- 85
2019-11-15 05:00:00 2.3 10 Sudeste 16 Sudeste 0 -- -- 92
2019-11-15 04:00:00 2.2 3 Sudoeste 13 Sur 0 -- -- 93
2019-11-15 03:00:00 2.1 5 Sudeste 6 Sudeste 0 -- -- 97
2019-11-15 02:00:00 2.3 0 Calma 13 Noroeste 0 -- -- 95
2019-11-15 01:00:00 2.5 9 Norte 14 Noroeste 0 -- -- 93
2019-11-15 00:00:00 2.8 12 Noroeste 30 Noroeste 0 -- -- 94
2019-11-14 23:00:00 2.6 21 Noroeste 26 Noroeste 0 -- -- 92
2019-11-14 22:00:00 3.2 4 Este 7 Este 0 -- -- 84
2019-11-14 21:00:00 3.8 6 Este 15 Este 0 -- -- 81
2019-11-14 20:00:00 3.2 7 Este 15 Este 0 -- -- 84
2019-11-14 19:00:00 3.2 8 Sudeste 12 Sudeste 0 -- -- 82
2019-11-14 18:00:00 4.1 6 Sudeste 17 Oeste 0 -- -- 80
2019-11-14 17:00:00 6.6 13 Oeste 30 Oeste 0 -- -- 64
2019-11-14 16:00:00 6.8 10 Noroeste 25 Oeste 0 -- -- 62
2019-11-14 15:00:00 8.1 11 Sudoeste 24 Oeste 0 -- -- 63
2019-11-14 14:00:00 7.6 16 Oeste 26 Oeste 0 -- -- 66
2019-11-14 13:00:00 7 9 Noroeste 14 Noroeste 0 -- -- 72
2019-11-14 12:00:00 7.3 4 Noroeste 15 Sudeste 0 -- -- 66
2019-11-14 11:00:00 5.9 6 Sudeste 14 Sudeste 0 -- -- 79
2019-11-14 10:00:00 4.2 5 Noroeste 8 Noroeste 0 -- -- 89
2019-11-14 09:00:00 2.1 5 Noroeste 9 Norte 0 -- -- 93
2019-11-14 08:00:00 2.1 5 Noroeste 26 Noroeste 0.4 -- -- 95
2019-11-14 07:00:00 2 22 Noroeste 38 Noroeste 1.4 -- -- 94
2019-11-14 06:00:00 2.9 19 Noroeste 28 Noroeste 2.8 -- -- 96
2019-11-14 05:00:00 3.9 18 Noroeste 35 Oeste 4.8 -- -- 96
2019-11-14 04:00:00 6.6 10 Sudoeste 17 Sur 0.6 -- -- 90
2019-11-14 03:00:00 7.5 12 Sur 18 Sudeste 0 -- -- 79
2019-11-14 02:00:00 7.2 12 Sudeste 23 Sur 0 -- -- 79
2019-11-14 01:00:00 6.4 15 Sudeste 18 Sudeste 0 -- -- 81
2019-11-14 00:00:00 6.2 12 Sur 26 Sur 0 -- -- 82
2019-11-13 23:00:00 7 22 Sur 31 Sudeste 0 -- -- 75
2019-11-13 22:00:00 6.3 20 Sudeste 25 Sudeste 0 -- -- 81
2019-11-13 21:00:00 6 6 Sudeste 13 Sur 0 -- -- 86
2019-11-13 20:00:00 6.5 8 Sur 14 Sur 0 -- -- 85
2019-11-13 19:00:00 6.5 9 Sudeste 12 Este 0 -- -- 88
2019-11-13 18:00:00 7.5 6 Nordeste 17 Noroeste 0 -- -- 78
2019-11-13 17:00:00 8.8 14 Noroeste 35 Noroeste 0 -- -- 75
2019-11-13 16:00:00 9.3 28 Noroeste 54 Noroeste 0 -- -- 68
2019-11-13 15:00:00 10.3 36 Noroeste 59 Noroeste 0 -- -- 70
2019-11-13 14:00:00 9.8 35 Noroeste 53 Noroeste 0.2 -- -- 71
2019-11-13 13:00:00 8.4 25 Noroeste 44 Noroeste 0 -- -- 80
2019-11-13 12:00:00 9.2 29 Noroeste 44 Noroeste 0 -- -- 78
2019-11-13 11:00:00 8.5 26 Noroeste 40 Noroeste 0 -- -- 90
2019-11-13 10:00:00 7.9 20 Noroeste 32 Noroeste 0 -- -- 93
2019-11-13 09:00:00 6.7 22 Noroeste 36 Oeste 0 -- -- 98
2019-11-13 08:00:00 6.4 25 Noroeste 33 Noroeste 0 -- -- 99
2019-11-13 07:00:00 6.2 20 Noroeste 30 Noroeste 0 -- -- 99
2019-11-13 06:00:00 6.1 14 Noroeste 22 Noroeste 1 -- -- 99
2019-11-13 05:00:00 6 6 Noroeste 8 Norte 0 -- -- 98
2019-11-13 04:00:00 6.2 0 Calma 3 Noroeste 0.4 -- -- 98
2019-11-13 03:00:00 6.2 0 Calma 5 Sudeste 0.6 -- -- 97
2019-11-13 02:00:00 6.6 3 Sudeste 6 Sudeste 0 -- -- 93
2019-11-13 01:00:00 6.7 3 Noroeste 9 Sudeste 0 -- -- 92
2019-11-13 00:00:00 7.2 5 Este 17 Noroeste 0 -- -- 86
2019-11-12 23:00:00 7.3 6 Noroeste 22 Oeste 0 -- -- 85
2019-11-12 22:00:00 7.6 13 Oeste 27 Oeste 0 -- -- 84
2019-11-12 21:00:00 7.7 10 Sudoeste 23 Oeste 0 -- -- 86
2019-11-12 20:00:00 6.7 6 Sudeste 8 Sudeste 0 -- -- 93
2019-11-12 19:00:00 7.2 3 Sudoeste 9 Norte 0 -- -- 89
2019-11-12 18:00:00 8 2 Noroeste 16 Noroeste 0 -- -- 86
2019-11-12 17:00:00 8.5 13 Noroeste 28 Noroeste 0 -- -- 83
2019-11-12 16:00:00 9.8 18 Noroeste 28 Noroeste 0 -- -- 80
2019-11-12 15:00:00 8.9 21 Noroeste 36 Noroeste 0 -- -- 84
2019-11-12 14:00:00 9.7 27 Noroeste 43 Noroeste 0 -- -- 81
2019-11-12 13:00:00 8 26 Noroeste 38 Noroeste 0 -- -- 86
2019-11-12 12:00:00 8.3 24 Noroeste 33 Noroeste 0.2 -- -- 85
2019-11-12 11:00:00 7.1 15 Noroeste 23 Noroeste 0 -- -- 94
2019-11-12 10:00:00 6.3 15 Noroeste 22 Noroeste 0 -- -- 94
2019-11-12 09:00:00 5.9 15 Noroeste 28 Oeste 0 -- -- 95
2019-11-12 08:00:00 5.3 15 Noroeste 26 Noroeste 0 -- -- 98
2019-11-12 07:00:00 5.3 17 Noroeste 24 Noroeste 0.2 -- -- 98
2019-11-12 06:00:00 5.3 18 Noroeste 24 Noroeste 0 -- -- 97
2019-11-12 05:00:00 5.2 19 Noroeste 30 Noroeste 0 -- -- 97
2019-11-12 04:00:00 4.8 17 Noroeste 28 Noroeste 0 -- -- 97
2019-11-12 03:00:00 4.6 20 Noroeste 27 Noroeste 0 -- -- 95
2019-11-12 02:00:00 4.5 19 Noroeste 31 Noroeste 0 -- -- 94
2019-11-12 01:00:00 5 23 Noroeste 36 Noroeste 0 -- -- 92
2019-11-12 00:00:00 5.2 25 Noroeste 39 Noroeste 0.2 -- -- 94
2019-11-11 23:00:00 5.4 28 Noroeste 42 Noroeste 0 -- -- 90
2019-11-11 22:00:00 4.9 27 Noroeste 40 Noroeste 0 -- -- 94
2019-11-11 21:00:00 5.5 23 Noroeste 37 Norte 0 -- -- 90
2019-11-11 20:00:00 6 23 Noroeste 54 Noroeste 0 -- -- 85
2019-11-11 19:00:00 6 28 Noroeste 45 Noroeste 0.2 -- -- 88
2019-11-11 18:00:00 6.1 23 Noroeste 42 Noroeste 0.4 -- -- 93
2019-11-11 17:00:00 6.3 31 Noroeste 43 Noroeste 0.4 -- -- 92
2019-11-11 16:00:00 6.7 29 Noroeste 44 Noroeste 1.6 -- -- 98
2019-11-11 15:00:00 6.2 22 Noroeste 32 Noroeste 0.6 -- -- 99
2019-11-11 14:00:00 6.2 8 Noroeste 13 Noroeste 0.6 -- -- 98
2019-11-11 13:00:00 6.3 3 Noroeste 8 Noroeste 1 -- -- 98
2019-11-11 12:00:00 5.9 0 Calma 5 Noroeste 0.2 -- -- 97
2019-11-11 11:00:00 4.8 2 Sudeste 4 Este 0 -- -- 96
2019-11-11 10:00:00 4.4 0 Calma 5 Sudeste 0 -- -- 95
2019-11-11 09:00:00 3.6 0 Calma 5 Este 0 -- -- 97
2019-11-11 08:00:00 2.7 3 Sudeste 5 Sudeste 0 -- -- 97
2019-11-11 07:00:00 2.7 0 Calma 11 Noroeste 0 -- -- 96
2019-11-11 06:00:00 2.9 10 Noroeste 18 Noroeste 0 -- -- 95
2019-11-11 05:00:00 3.3 9 Norte 21 Noroeste 0 -- -- 95
2019-11-11 04:00:00 2.1 18 Noroeste 27 Noroeste 0 -- -- 97
2019-11-11 03:00:00 1.9 16 Noroeste 22 Noroeste 0 -- -- 96
2019-11-11 02:00:00 2.8 13 Noroeste 22 Noroeste 0 -- -- 93
2019-11-11 01:00:00 2.6 16 Noroeste 23 Noroeste 0 -- -- 94
2019-11-11 00:00:00 2.7 18 Noroeste 27 Noroeste 0 -- -- 94